sensor_id;sensor_type;location;lat;lon;timestamp;P1;durP1;ratioP1;P2;durP2;ratioP2
43700;SDS011;58809;47.984;7.964;2023-03-23T00:00:28;4.40;;;2.85;;
43700;SDS011;58809;47.984;7.964;2023-03-23T00:03:28;4.75;;;2.90;;
43700;SDS011;58809;47.984;7.964;2023-03-23T00:06:31;4.22;;;3.30;;
43700;SDS011;58809;47.984;7.964;2023-03-23T00:09:34;5.25;;;3.63;;
43700;SDS011;58809;47.984;7.964;2023-03-23T00:12:41;5.70;;;3.67;;
43700;SDS011;58809;47.984;7.964;2023-03-23T00:15:42;5.22;;;3.70;;
43700;SDS011;58809;47.984;7.964;2023-03-23T00:18:46;5.70;;;3.17;;
43700;SDS011;58809;47.984;7.964;2023-03-23T00:21:48;3.60;;;2.95;;
43700;SDS011;58809;47.984;7.964;2023-03-23T00:24:54;4.40;;;3.00;;
43700;SDS011;58809;47.984;7.964;2023-03-23T00:27:54;4.50;;;2.80;;
43700;SDS011;58809;47.984;7.964;2023-03-23T00:31:01;3.85;;;2.90;;
43700;SDS011;58809;47.984;7.964;2023-03-23T00:34:04;3.28;;;2.95;;
43700;SDS011;58809;47.984;7.964;2023-03-23T00:37:04;5.50;;;3.67;;
43700;SDS011;58809;47.984;7.964;2023-03-23T00:40:05;5.55;;;3.47;;
43700;SDS011;58809;47.984;7.964;2023-03-23T00:43:11;6.07;;;2.70;;
43700;SDS011;58809;47.984;7.964;2023-03-23T00:46:13;4.57;;;3.20;;
43700;SDS011;58809;47.984;7.964;2023-03-23T00:49:18;5.72;;;2.90;;
43700;SDS011;58809;47.984;7.964;2023-03-23T00:52:25;3.25;;;2.60;;
43700;SDS011;58809;47.984;7.964;2023-03-23T00:55:25;5.75;;;3.40;;
43700;SDS011;58809;47.984;7.964;2023-03-23T00:58:26;4.38;;;3.05;;
43700;SDS011;58809;47.984;7.964;2023-03-23T01:01:26;3.75;;;2.92;;
43700;SDS011;58809;47.984;7.964;2023-03-23T01:04:27;5.63;;;3.63;;
43700;SDS011;58809;47.984;7.964;2023-03-23T01:07:28;4.55;;;2.67;;
43700;SDS011;58809;47.984;7.964;2023-03-23T01:10:31;3.67;;;2.78;;
43700;SDS011;58809;47.984;7.964;2023-03-23T01:13:33;6.25;;;3.20;;
43700;SDS011;58809;47.984;7.964;2023-03-23T01:16:33;3.30;;;2.53;;
43700;SDS011;58809;47.984;7.964;2023-03-23T01:19:34;3.70;;;2.70;;
43700;SDS011;58809;47.984;7.964;2023-03-23T01:22:35;3.53;;;2.30;;
43700;SDS011;58809;47.984;7.964;2023-03-23T01:25:35;8.85;;;2.90;;
43700;SDS011;58809;47.984;7.964;2023-03-23T01:28:36;3.85;;;2.78;;
43700;SDS011;58809;47.984;7.964;2023-03-23T01:31:38;4.10;;;3.03;;
43700;SDS011;58809;47.984;7.964;2023-03-23T01:34:40;4.13;;;2.55;;
43700;SDS011;58809;47.984;7.964;2023-03-23T01:37:41;3.28;;;2.85;;
43700;SDS011;58809;47.984;7.964;2023-03-23T01:40:42;3.55;;;2.35;;
43700;SDS011;58809;47.984;7.964;2023-03-23T01:43:56;2.65;;;2.28;;
43700;SDS011;58809;47.984;7.964;2023-03-23T01:46:59;3.75;;;2.95;;
43700;SDS011;58809;47.984;7.964;2023-03-23T01:50:00;4.35;;;2.65;;
43700;SDS011;58809;47.984;7.964;2023-03-23T01:53:02;3.47;;;2.83;;
43700;SDS011;58809;47.984;7.964;2023-03-23T01:56:09;2.60;;;2.33;;
43700;SDS011;58809;47.984;7.964;2023-03-23T01:59:11;2.55;;;2.35;;
43700;SDS011;58809;47.984;7.964;2023-03-23T02:02:17;4.07;;;2.17;;
43700;SDS011;58809;47.984;7.964;2023-03-23T02:05:29;2.95;;;2.15;;
43700;SDS011;58809;47.984;7.964;2023-03-23T02:08:43;3.25;;;2.40;;
43700;SDS011;58809;47.984;7.964;2023-03-23T02:11:46;2.80;;;2.47;;
43700;SDS011;58809;47.984;7.964;2023-03-23T02:14:48;2.42;;;2.10;;
43700;SDS011;58809;47.984;7.964;2023-03-23T02:17:51;2.47;;;2.28;;
43700;SDS011;58809;47.984;7.964;2023-03-23T02:34:32;3.33;;;2.22;;
43700;SDS011;58809;47.984;7.964;2023-03-23T02:40:49;2.72;;;2.35;;
43700;SDS011;58809;47.984;7.964;2023-03-23T02:43:51;2.45;;;2.25;;
43700;SDS011;58809;47.984;7.964;2023-03-23T02:46:53;3.13;;;2.22;;
43700;SDS011;58809;47.984;7.964;2023-03-23T02:49:55;2.92;;;2.40;;
43700;SDS011;58809;47.984;7.964;2023-03-23T02:56:00;2.97;;;2.67;;
43700;SDS011;58809;47.984;7.964;2023-03-23T02:59:03;3.17;;;2.25;;
43700;SDS011;58809;47.984;7.964;2023-03-23T03:02:26;3.40;;;2.47;;
43700;SDS011;58809;47.984;7.964;2023-03-23T03:05:30;2.20;;;1.83;;
43700;SDS011;58809;47.984;7.964;2023-03-23T03:09:04;2.85;;;2.03;;
43700;SDS011;58809;47.984;7.964;2023-03-23T03:12:12;2.45;;;2.17;;
43700;SDS011;58809;47.984;7.964;2023-03-23T03:15:36;1.98;;;1.85;;
43700;SDS011;58809;47.984;7.964;2023-03-23T03:18:47;4.30;;;2.72;;
43700;SDS011;58809;47.984;7.964;2023-03-23T03:21:49;3.22;;;2.45;;
43700;SDS011;58809;47.984;7.964;2023-03-23T03:24:58;4.88;;;2.50;;
43700;SDS011;58809;47.984;7.964;2023-03-23T03:28:00;3.55;;;2.58;;
43700;SDS011;58809;47.984;7.964;2023-03-23T03:31:18;3.45;;;2.80;;
43700;SDS011;58809;47.984;7.964;2023-03-23T03:34:22;3.13;;;2.70;;
43700;SDS011;58809;47.984;7.964;2023-03-23T03:37:25;4.43;;;3.10;;
43700;SDS011;58809;47.984;7.964;2023-03-23T03:40:26;3.10;;;2.63;;
43700;SDS011;58809;47.984;7.964;2023-03-23T03:43:27;4.32;;;2.97;;
43700;SDS011;58809;47.984;7.964;2023-03-23T03:46:27;3.15;;;2.55;;
43700;SDS011;58809;47.984;7.964;2023-03-23T03:49:30;3.15;;;2.65;;
43700;SDS011;58809;47.984;7.964;2023-03-23T03:52:31;3.47;;;2.67;;
43700;SDS011;58809;47.984;7.964;2023-03-23T03:55:33;4.13;;;2.92;;
43700;SDS011;58809;47.984;7.964;2023-03-23T03:58:41;3.65;;;2.60;;
43700;SDS011;58809;47.984;7.964;2023-03-23T04:01:49;3.08;;;2.67;;
43700;SDS011;58809;47.984;7.964;2023-03-23T04:04:54;5.03;;;2.33;;
43700;SDS011;58809;47.984;7.964;2023-03-23T04:07:54;3.40;;;3.00;;
43700;SDS011;58809;47.984;7.964;2023-03-23T04:11:03;3.70;;;2.47;;
43700;SDS011;58809;47.984;7.964;2023-03-23T04:14:04;2.80;;;2.45;;
43700;SDS011;58809;47.984;7.964;2023-03-23T04:17:16;6.10;;;3.20;;
43700;SDS011;58809;47.984;7.964;2023-03-23T04:20:17;3.95;;;2.55;;
43700;SDS011;58809;47.984;7.964;2023-03-23T04:23:22;3.33;;;2.42;;
43700;SDS011;58809;47.984;7.964;2023-03-23T04:26:28;4.03;;;2.72;;
43700;SDS011;58809;47.984;7.964;2023-03-23T04:29:33;3.30;;;2.67;;
43700;SDS011;58809;47.984;7.964;2023-03-23T04:32:52;2.55;;;2.17;;
43700;SDS011;58809;47.984;7.964;2023-03-23T04:35:59;4.32;;;2.72;;
43700;SDS011;58809;47.984;7.964;2023-03-23T04:39:13;5.63;;;2.60;;
43700;SDS011;58809;47.984;7.964;2023-03-23T04:42:14;2.72;;;2.53;;
43700;SDS011;58809;47.984;7.964;2023-03-23T04:45:35;5.28;;;2.67;;
43700;SDS011;58809;47.984;7.964;2023-03-23T04:48:39;3.30;;;3.00;;
43700;SDS011;58809;47.984;7.964;2023-03-23T04:51:47;4.53;;;3.17;;
43700;SDS011;58809;47.984;7.964;2023-03-23T04:55:00;5.50;;;2.43;;
43700;SDS011;58809;47.984;7.964;2023-03-23T04:58:06;3.55;;;2.60;;
43700;SDS011;58809;47.984;7.964;2023-03-23T05:01:16;3.38;;;2.92;;
43700;SDS011;58809;47.984;7.964;2023-03-23T05:04:31;2.85;;;2.55;;
43700;SDS011;58809;47.984;7.964;2023-03-23T05:07:39;3.53;;;3.00;;
43700;SDS011;58809;47.984;7.964;2023-03-23T05:10:41;3.80;;;2.88;;
43700;SDS011;58809;47.984;7.964;2023-03-23T05:13:46;6.15;;;3.33;;
43700;SDS011;58809;47.984;7.964;2023-03-23T05:16:47;4.15;;;2.97;;
43700;SDS011;58809;47.984;7.964;2023-03-23T05:19:51;5.90;;;3.25;;
43700;SDS011;58809;47.984;7.964;2023-03-23T05:23:07;4.70;;;3.08;;
43700;SDS011;58809;47.984;7.964;2023-03-23T05:26:10;4.35;;;3.47;;
43700;SDS011;58809;47.984;7.964;2023-03-23T05:29:10;4.78;;;3.20;;
43700;SDS011;58809;47.984;7.964;2023-03-23T05:32:21;4.65;;;3.50;;
43700;SDS011;58809;47.984;7.964;2023-03-23T05:35:28;4.18;;;2.67;;
43700;SDS011;58809;47.984;7.964;2023-03-23T05:38:30;5.90;;;3.33;;
43700;SDS011;58809;47.984;7.964;2023-03-23T05:41:31;5.50;;;3.20;;
43700;SDS011;58809;47.984;7.964;2023-03-23T05:44:34;4.05;;;3.17;;
43700;SDS011;58809;47.984;7.964;2023-03-23T05:47:35;4.25;;;3.03;;
43700;SDS011;58809;47.984;7.964;2023-03-23T05:50:41;3.45;;;3.08;;
43700;SDS011;58809;47.984;7.964;2023-03-23T05:53:42;3.55;;;2.90;;
43700;SDS011;58809;47.984;7.964;2023-03-23T05:56:44;3.90;;;3.25;;
43700;SDS011;58809;47.984;7.964;2023-03-23T05:59:45;4.88;;;3.38;;
43700;SDS011;58809;47.984;7.964;2023-03-23T06:02:54;5.70;;;3.75;;
43700;SDS011;58809;47.984;7.964;2023-03-23T06:06:03;5.70;;;3.95;;
43700;SDS011;58809;47.984;7.964;2023-03-23T06:09:15;4.78;;;3.30;;
43700;SDS011;58809;47.984;7.964;2023-03-23T06:12:36;3.70;;;3.35;;
43700;SDS011;58809;47.984;7.964;2023-03-23T06:16:03;4.97;;;3.20;;
43700;SDS011;58809;47.984;7.964;2023-03-23T06:19:24;5.47;;;3.47;;
43700;SDS011;58809;47.984;7.964;2023-03-23T06:22:41;5.15;;;3.60;;
43700;SDS011;58809;47.984;7.964;2023-03-23T06:25:48;4.97;;;3.40;;
43700;SDS011;58809;47.984;7.964;2023-03-23T06:28:49;5.07;;;3.38;;
43700;SDS011;58809;47.984;7.964;2023-03-23T06:31:55;5.20;;;3.15;;
43700;SDS011;58809;47.984;7.964;2023-03-23T06:35:04;4.90;;;3.53;;
43700;SDS011;58809;47.984;7.964;2023-03-23T06:38:23;3.72;;;3.15;;
43700;SDS011;58809;47.984;7.964;2023-03-23T06:41:28;5.93;;;3.80;;
43700;SDS011;58809;47.984;7.964;2023-03-23T06:44:28;3.35;;;2.90;;
43700;SDS011;58809;47.984;7.964;2023-03-23T06:47:30;3.25;;;2.95;;
43700;SDS011;58809;47.984;7.964;2023-03-23T06:50:31;5.25;;;3.25;;
43700;SDS011;58809;47.984;7.964;2023-03-23T06:53:31;6.50;;;3.78;;
43700;SDS011;58809;47.984;7.964;2023-03-23T06:56:33;4.70;;;3.30;;
43700;SDS011;58809;47.984;7.964;2023-03-23T06:59:34;5.38;;;3.30;;
43700;SDS011;58809;47.984;7.964;2023-03-23T07:02:35;3.47;;;3.17;;
43700;SDS011;58809;47.984;7.964;2023-03-23T07:05:36;7.10;;;3.60;;
43700;SDS011;58809;47.984;7.964;2023-03-23T07:08:38;5.45;;;3.28;;
43700;SDS011;58809;47.984;7.964;2023-03-23T07:11:43;5.93;;;3.42;;
43700;SDS011;58809;47.984;7.964;2023-03-23T07:14:55;4.07;;;3.30;;
43700;SDS011;58809;47.984;7.964;2023-03-23T07:17:56;4.20;;;3.45;;
43700;SDS011;58809;47.984;7.964;2023-03-23T07:21:06;4.90;;;2.97;;
43700;SDS011;58809;47.984;7.964;2023-03-23T07:24:10;3.83;;;3.05;;
43700;SDS011;58809;47.984;7.964;2023-03-23T07:27:47;4.25;;;3.00;;
43700;SDS011;58809;47.984;7.964;2023-03-23T07:30:50;3.50;;;2.60;;
43700;SDS011;58809;47.984;7.964;2023-03-23T07:33:51;4.28;;;3.30;;
43700;SDS011;58809;47.984;7.964;2023-03-23T07:36:53;4.15;;;2.95;;
43700;SDS011;58809;47.984;7.964;2023-03-23T07:39:55;6.18;;;3.00;;
43700;SDS011;58809;47.984;7.964;2023-03-23T07:42:56;5.15;;;3.75;;
43700;SDS011;58809;47.984;7.964;2023-03-23T07:46:23;4.80;;;3.65;;
43700;SDS011;58809;47.984;7.964;2023-03-23T07:49:37;6.18;;;3.33;;
43700;SDS011;58809;47.984;7.964;2023-03-23T07:52:49;4.20;;;3.13;;
43700;SDS011;58809;47.984;7.964;2023-03-23T07:59:25;5.15;;;3.70;;
43700;SDS011;58809;47.984;7.964;2023-03-23T08:02:27;6.50;;;3.53;;
43700;SDS011;58809;47.984;7.964;2023-03-23T08:05:50;4.20;;;3.45;;
43700;SDS011;58809;47.984;7.964;2023-03-23T08:09:20;5.65;;;3.63;;
43700;SDS011;58809;47.984;7.964;2023-03-23T08:12:24;5.05;;;3.70;;
43700;SDS011;58809;47.984;7.964;2023-03-23T08:15:48;5.18;;;3.75;;
43700;SDS011;58809;47.984;7.964;2023-03-23T08:19:22;5.32;;;3.60;;
43700;SDS011;58809;47.984;7.964;2023-03-23T08:22:45;4.80;;;3.55;;
43700;SDS011;58809;47.984;7.964;2023-03-23T08:26:11;5.95;;;3.78;;
43700;SDS011;58809;47.984;7.964;2023-03-23T08:29:34;5.32;;;4.53;;
43700;SDS011;58809;47.984;7.964;2023-03-23T08:32:47;4.70;;;3.63;;
43700;SDS011;58809;47.984;7.964;2023-03-23T08:36:02;5.25;;;4.18;;
43700;SDS011;58809;47.984;7.964;2023-03-23T08:39:23;4.85;;;3.90;;
43700;SDS011;58809;47.984;7.964;2023-03-23T08:42:33;5.85;;;4.07;;
43700;SDS011;58809;47.984;7.964;2023-03-23T08:45:33;7.05;;;3.75;;
43700;SDS011;58809;47.984;7.964;2023-03-23T08:48:54;7.35;;;4.40;;
43700;SDS011;58809;47.984;7.964;2023-03-23T08:52:15;9.35;;;4.10;;
43700;SDS011;58809;47.984;7.964;2023-03-23T08:55:38;4.60;;;3.78;;
43700;SDS011;58809;47.984;7.964;2023-03-23T08:58:48;6.95;;;4.10;;
43700;SDS011;58809;47.984;7.964;2023-03-23T09:02:09;6.97;;;4.30;;
43700;SDS011;58809;47.984;7.964;2023-03-23T09:05:26;6.78;;;3.90;;
43700;SDS011;58809;47.984;7.964;2023-03-23T09:08:57;6.55;;;4.32;;
43700;SDS011;58809;47.984;7.964;2023-03-23T09:11:59;5.47;;;4.20;;
43700;SDS011;58809;47.984;7.964;2023-03-23T09:15:00;5.75;;;4.45;;
43700;SDS011;58809;47.984;7.964;2023-03-23T09:18:01;5.80;;;4.70;;
43700;SDS011;58809;47.984;7.964;2023-03-23T09:21:01;5.60;;;4.30;;
43700;SDS011;58809;47.984;7.964;2023-03-23T09:24:03;6.15;;;4.53;;
43700;SDS011;58809;47.984;7.964;2023-03-23T09:27:04;6.63;;;4.15;;
43700;SDS011;58809;47.984;7.964;2023-03-23T09:30:06;5.28;;;3.92;;
43700;SDS011;58809;47.984;7.964;2023-03-23T09:33:08;5.00;;;4.25;;
43700;SDS011;58809;47.984;7.964;2023-03-23T09:36:09;5.65;;;4.10;;
43700;SDS011;58809;47.984;7.964;2023-03-23T09:39:12;7.13;;;3.88;;
43700;SDS011;58809;47.984;7.964;2023-03-23T09:42:19;5.55;;;4.47;;
43700;SDS011;58809;47.984;7.964;2023-03-23T09:48:58;5.15;;;3.83;;
43700;SDS011;58809;47.984;7.964;2023-03-23T09:52:08;4.72;;;3.90;;
43700;SDS011;58809;47.984;7.964;2023-03-23T09:55:17;5.60;;;3.75;;
43700;SDS011;58809;47.984;7.964;2023-03-23T10:01:49;3.08;;;2.75;;
43700;SDS011;58809;47.984;7.964;2023-03-23T10:04:53;5.13;;;3.45;;
43700;SDS011;58809;47.984;7.964;2023-03-23T10:07:55;7.45;;;3.78;;
43700;SDS011;58809;47.984;7.964;2023-03-23T10:11:03;5.93;;;3.20;;
43700;SDS011;58809;47.984;7.964;2023-03-23T10:17:33;3.20;;;2.88;;
43700;SDS011;58809;47.984;7.964;2023-03-23T10:20:43;4.78;;;2.90;;
43700;SDS011;58809;47.984;7.964;2023-03-23T10:27:04;4.35;;;3.00;;
43700;SDS011;58809;47.984;7.964;2023-03-23T10:30:15;3.83;;;3.25;;
43700;SDS011;58809;47.984;7.964;2023-03-23T10:33:21;3.10;;;2.65;;
43700;SDS011;58809;47.984;7.964;2023-03-23T10:36:27;3.35;;;2.65;;
43700;SDS011;58809;47.984;7.964;2023-03-23T10:39:31;3.33;;;2.45;;
43700;SDS011;58809;47.984;7.964;2023-03-23T10:42:40;3.17;;;2.88;;
43700;SDS011;58809;47.984;7.964;2023-03-23T10:45:41;3.22;;;2.67;;
43700;SDS011;58809;47.984;7.964;2023-03-23T10:48:45;4.47;;;2.53;;
43700;SDS011;58809;47.984;7.964;2023-03-23T10:55:17;3.55;;;2.90;;
43700;SDS011;58809;47.984;7.964;2023-03-23T11:01:32;3.80;;;2.55;;
43700;SDS011;58809;47.984;7.964;2023-03-23T11:04:35;2.80;;;2.50;;
43700;SDS011;58809;47.984;7.964;2023-03-23T11:07:35;3.97;;;3.00;;
43700;SDS011;58809;47.984;7.964;2023-03-23T11:10:37;3.75;;;2.78;;
43700;SDS011;58809;47.984;7.964;2023-03-23T11:13:45;7.80;;;3.13;;
43700;SDS011;58809;47.984;7.964;2023-03-23T11:16:50;3.80;;;2.78;;
43700;SDS011;58809;47.984;7.964;2023-03-23T11:19:55;6.32;;;3.30;;
43700;SDS011;58809;47.984;7.964;2023-03-23T11:22:55;3.38;;;2.58;;
43700;SDS011;58809;47.984;7.964;2023-03-23T11:29:20;4.05;;;2.78;;
43700;SDS011;58809;47.984;7.964;2023-03-23T11:35:27;5.05;;;3.28;;
43700;SDS011;58809;47.984;7.964;2023-03-23T11:38:28;4.95;;;2.95;;
43700;SDS011;58809;47.984;7.964;2023-03-23T11:41:32;3.83;;;2.80;;
43700;SDS011;58809;47.984;7.964;2023-03-23T11:44:39;3.90;;;2.40;;
43700;SDS011;58809;47.984;7.964;2023-03-23T11:47:45;4.40;;;2.70;;
43700;SDS011;58809;47.984;7.964;2023-03-23T11:50:54;4.78;;;2.85;;
43700;SDS011;58809;47.984;7.964;2023-03-23T11:57:11;2.80;;;2.55;;
43700;SDS011;58809;47.984;7.964;2023-03-23T12:00:14;3.28;;;2.80;;
43700;SDS011;58809;47.984;7.964;2023-03-23T12:03:37;3.42;;;2.83;;
43700;SDS011;58809;47.984;7.964;2023-03-23T12:17:31;5.20;;;3.13;;
43700;SDS011;58809;47.984;7.964;2023-03-23T12:20:47;5.20;;;3.55;;
43700;SDS011;58809;47.984;7.964;2023-03-23T12:24:10;3.67;;;2.88;;
43700;SDS011;58809;47.984;7.964;2023-03-23T12:30:46;4.72;;;2.97;;
43700;SDS011;58809;47.984;7.964;2023-03-23T12:33:55;5.88;;;3.13;;
43700;SDS011;58809;47.984;7.964;2023-03-23T12:44:05;4.13;;;2.55;;
43700;SDS011;58809;47.984;7.964;2023-03-23T12:50:44;3.42;;;2.97;;
43700;SDS011;58809;47.984;7.964;2023-03-23T12:57:34;4.40;;;3.15;;
43700;SDS011;58809;47.984;7.964;2023-03-23T13:00:49;3.38;;;2.92;;
43700;SDS011;58809;47.984;7.964;2023-03-23T13:07:29;9.05;;;3.85;;
43700;SDS011;58809;47.984;7.964;2023-03-23T13:10:50;6.25;;;3.75;;
43700;SDS011;58809;47.984;7.964;2023-03-23T13:13:54;4.78;;;2.97;;
43700;SDS011;58809;47.984;7.964;2023-03-23T13:23:50;5.05;;;3.45;;
43700;SDS011;58809;47.984;7.964;2023-03-23T13:26:54;3.17;;;2.83;;
43700;SDS011;58809;47.984;7.964;2023-03-23T13:29:57;5.15;;;2.67;;
43700;SDS011;58809;47.984;7.964;2023-03-23T13:33:04;4.20;;;3.10;;
43700;SDS011;58809;47.984;7.964;2023-03-23T13:36:11;3.45;;;3.08;;
43700;SDS011;58809;47.984;7.964;2023-03-23T13:39:20;3.60;;;2.83;;
43700;SDS011;58809;47.984;7.964;2023-03-23T13:42:30;2.97;;;2.67;;
43700;SDS011;58809;47.984;7.964;2023-03-23T13:45:36;3.38;;;2.97;;
43700;SDS011;58809;47.984;7.964;2023-03-23T13:48:45;4.28;;;2.72;;
43700;SDS011;58809;47.984;7.964;2023-03-23T13:58:25;4.45;;;2.58;;
43700;SDS011;58809;47.984;7.964;2023-03-23T14:01:34;4.82;;;2.75;;
43700;SDS011;58809;47.984;7.964;2023-03-23T14:04:36;8.00;;;3.17;;
43700;SDS011;58809;47.984;7.964;2023-03-23T14:07:53;3.42;;;2.80;;
43700;SDS011;58809;47.984;7.964;2023-03-23T14:10:56;4.10;;;2.95;;
43700;SDS011;58809;47.984;7.964;2023-03-23T14:14:04;4.50;;;2.80;;
43700;SDS011;58809;47.984;7.964;2023-03-23T14:20:19;3.88;;;2.88;;
43700;SDS011;58809;47.984;7.964;2023-03-23T14:23:25;2.97;;;2.40;;
43700;SDS011;58809;47.984;7.964;2023-03-23T14:26:25;3.92;;;2.95;;
43700;SDS011;58809;47.984;7.964;2023-03-23T14:29:26;4.60;;;3.00;;
43700;SDS011;58809;47.984;7.964;2023-03-23T14:32:27;3.55;;;3.08;;
43700;SDS011;58809;47.984;7.964;2023-03-23T14:35:50;7.00;;;3.50;;
43700;SDS011;58809;47.984;7.964;2023-03-23T14:38:59;4.40;;;3.20;;
43700;SDS011;58809;47.984;7.964;2023-03-23T14:42:37;4.55;;;3.67;;
43700;SDS011;58809;47.984;7.964;2023-03-23T14:45:38;5.25;;;3.38;;
43700;SDS011;58809;47.984;7.964;2023-03-23T14:48:39;3.67;;;2.92;;
43700;SDS011;58809;47.984;7.964;2023-03-23T14:51:46;4.47;;;2.97;;
43700;SDS011;58809;47.984;7.964;2023-03-23T14:54:49;5.13;;;3.45;;
43700;SDS011;58809;47.984;7.964;2023-03-23T14:57:49;4.57;;;3.10;;
43700;SDS011;58809;47.984;7.964;2023-03-23T15:04:01;3.47;;;2.92;;
43700;SDS011;58809;47.984;7.964;2023-03-23T15:07:06;4.07;;;3.05;;
43700;SDS011;58809;47.984;7.964;2023-03-23T15:10:09;4.40;;;3.45;;
43700;SDS011;58809;47.984;7.964;2023-03-23T15:13:16;3.92;;;3.15;;
43700;SDS011;58809;47.984;7.964;2023-03-23T15:16:21;4.28;;;2.60;;
43700;SDS011;58809;47.984;7.964;2023-03-23T15:19:25;5.13;;;3.33;;
43700;SDS011;58809;47.984;7.964;2023-03-23T15:22:44;7.47;;;3.72;;
43700;SDS011;58809;47.984;7.964;2023-03-23T15:25:50;6.40;;;3.65;;
43700;SDS011;58809;47.984;7.964;2023-03-23T15:32:09;6.95;;;4.00;;
43700;SDS011;58809;47.984;7.964;2023-03-23T15:35:12;9.38;;;3.90;;
43700;SDS011;58809;47.984;7.964;2023-03-23T15:38:24;6.88;;;3.85;;
43700;SDS011;58809;47.984;7.964;2023-03-23T15:41:31;5.80;;;4.07;;
43700;SDS011;58809;47.984;7.964;2023-03-23T15:44:35;4.70;;;3.42;;
43700;SDS011;58809;47.984;7.964;2023-03-23T15:50:42;7.07;;;3.90;;
43700;SDS011;58809;47.984;7.964;2023-03-23T15:53:44;6.35;;;3.60;;
43700;SDS011;58809;47.984;7.964;2023-03-23T15:56:45;5.57;;;3.47;;
43700;SDS011;58809;47.984;7.964;2023-03-23T15:59:46;4.03;;;3.35;;
43700;SDS011;58809;47.984;7.964;2023-03-23T16:02:49;3.97;;;2.95;;
43700;SDS011;58809;47.984;7.964;2023-03-23T16:05:54;3.95;;;3.30;;
43700;SDS011;58809;47.984;7.964;2023-03-23T16:08:58;4.38;;;3.20;;
43700;SDS011;58809;47.984;7.964;2023-03-23T16:12:00;4.93;;;3.20;;
43700;SDS011;58809;47.984;7.964;2023-03-23T16:15:01;4.43;;;3.10;;
43700;SDS011;58809;47.984;7.964;2023-03-23T16:18:03;3.67;;;3.15;;
43700;SDS011;58809;47.984;7.964;2023-03-23T16:21:05;5.72;;;3.55;;
43700;SDS011;58809;47.984;7.964;2023-03-23T16:24:07;4.57;;;3.10;;
43700;SDS011;58809;47.984;7.964;2023-03-23T16:27:09;6.22;;;3.45;;
43700;SDS011;58809;47.984;7.964;2023-03-23T16:30:15;4.28;;;3.40;;
43700;SDS011;58809;47.984;7.964;2023-03-23T16:33:19;5.57;;;3.60;;
43700;SDS011;58809;47.984;7.964;2023-03-23T16:36:21;5.07;;;3.80;;
43700;SDS011;58809;47.984;7.964;2023-03-23T16:39:22;5.78;;;3.33;;
43700;SDS011;58809;47.984;7.964;2023-03-23T16:42:24;5.43;;;3.70;;
43700;SDS011;58809;47.984;7.964;2023-03-23T16:45:25;5.30;;;3.50;;
43700;SDS011;58809;47.984;7.964;2023-03-23T16:48:27;6.10;;;4.45;;
43700;SDS011;58809;47.984;7.964;2023-03-23T16:51:29;11.30;;;8.05;;
43700;SDS011;58809;47.984;7.964;2023-03-23T16:54:30;12.93;;;8.40;;
43700;SDS011;58809;47.984;7.964;2023-03-23T16:57:32;10.30;;;9.00;;
43700;SDS011;58809;47.984;7.964;2023-03-23T17:00:36;7.38;;;3.88;;
43700;SDS011;58809;47.984;7.964;2023-03-23T17:03:39;5.22;;;4.10;;
43700;SDS011;58809;47.984;7.964;2023-03-23T17:06:43;5.82;;;4.30;;
43700;SDS011;58809;47.984;7.964;2023-03-23T17:09:46;5.55;;;4.00;;
43700;SDS011;58809;47.984;7.964;2023-03-23T17:12:48;5.40;;;3.25;;
43700;SDS011;58809;47.984;7.964;2023-03-23T17:15:51;4.05;;;3.28;;
43700;SDS011;58809;47.984;7.964;2023-03-23T17:18:54;5.07;;;3.28;;
43700;SDS011;58809;47.984;7.964;2023-03-23T17:21:56;4.60;;;3.22;;
43700;SDS011;58809;47.984;7.964;2023-03-23T17:24:57;3.33;;;2.80;;
43700;SDS011;58809;47.984;7.964;2023-03-23T17:27:59;6.97;;;4.50;;
43700;SDS011;58809;47.984;7.964;2023-03-23T17:31:07;7.03;;;4.03;;
43700;SDS011;58809;47.984;7.964;2023-03-23T17:34:08;3.95;;;3.20;;
43700;SDS011;58809;47.984;7.964;2023-03-23T17:37:10;5.47;;;3.40;;
43700;SDS011;58809;47.984;7.964;2023-03-23T17:40:12;5.28;;;3.38;;
43700;SDS011;58809;47.984;7.964;2023-03-23T17:43:14;4.55;;;2.92;;
43700;SDS011;58809;47.984;7.964;2023-03-23T17:46:16;4.30;;;3.15;;
43700;SDS011;58809;47.984;7.964;2023-03-23T17:49:18;4.55;;;3.58;;
43700;SDS011;58809;47.984;7.964;2023-03-23T17:52:19;3.65;;;2.85;;
43700;SDS011;58809;47.984;7.964;2023-03-23T17:55:21;4.65;;;3.10;;
43700;SDS011;58809;47.984;7.964;2023-03-23T17:58:23;4.95;;;3.50;;
43700;SDS011;58809;47.984;7.964;2023-03-23T18:01:28;5.57;;;3.53;;
43700;SDS011;58809;47.984;7.964;2023-03-23T18:04:30;5.03;;;3.20;;
43700;SDS011;58809;47.984;7.964;2023-03-23T18:07:32;4.88;;;2.90;;
43700;SDS011;58809;47.984;7.964;2023-03-23T18:10:34;6.80;;;3.17;;
43700;SDS011;58809;47.984;7.964;2023-03-23T18:13:37;4.88;;;3.20;;
43700;SDS011;58809;47.984;7.964;2023-03-23T18:16:39;5.35;;;3.30;;
43700;SDS011;58809;47.984;7.964;2023-03-23T18:19:42;5.72;;;3.70;;
43700;SDS011;58809;47.984;7.964;2023-03-23T18:22:44;6.83;;;4.17;;
43700;SDS011;58809;47.984;7.964;2023-03-23T18:25:46;8.32;;;6.13;;
43700;SDS011;58809;47.984;7.964;2023-03-23T18:28:49;12.55;;;9.88;;
43700;SDS011;58809;47.984;7.964;2023-03-23T18:31:51;22.67;;;16.30;;
43700;SDS011;58809;47.984;7.964;2023-03-23T18:34:53;23.33;;;16.40;;
43700;SDS011;58809;47.984;7.964;2023-03-23T18:37:54;25.92;;;15.93;;
43700;SDS011;58809;47.984;7.964;2023-03-23T18:40:56;22.52;;;15.32;;
43700;SDS011;58809;47.984;7.964;2023-03-23T18:43:57;21.17;;;15.07;;
43700;SDS011;58809;47.984;7.964;2023-03-23T18:46:59;24.13;;;21.63;;
43700;SDS011;58809;47.984;7.964;2023-03-23T18:50:01;14.30;;;12.30;;
43700;SDS011;58809;47.984;7.964;2023-03-23T18:53:02;15.23;;;10.82;;
43700;SDS011;58809;47.984;7.964;2023-03-23T18:56:08;9.93;;;7.80;;
43700;SDS011;58809;47.984;7.964;2023-03-23T18:59:14;14.32;;;9.05;;
43700;SDS011;58809;47.984;7.964;2023-03-23T19:02:15;17.70;;;13.10;;
43700;SDS011;58809;47.984;7.964;2023-03-23T19:05:19;11.65;;;8.07;;
43700;SDS011;58809;47.984;7.964;2023-03-23T19:08:20;12.73;;;8.40;;
43700;SDS011;58809;47.984;7.964;2023-03-23T19:11:22;11.35;;;6.90;;
43700;SDS011;58809;47.984;7.964;2023-03-23T19:14:28;8.68;;;5.90;;
43700;SDS011;58809;47.984;7.964;2023-03-23T19:17:29;12.55;;;9.20;;
43700;SDS011;58809;47.984;7.964;2023-03-23T19:20:31;13.68;;;9.40;;
43700;SDS011;58809;47.984;7.964;2023-03-23T19:23:54;20.65;;;13.52;;
43700;SDS011;58809;47.984;7.964;2023-03-23T19:26:56;13.05;;;10.13;;
43700;SDS011;58809;47.984;7.964;2023-03-23T19:29:57;13.00;;;8.88;;
43700;SDS011;58809;47.984;7.964;2023-03-23T19:32:59;12.57;;;8.95;;
43700;SDS011;58809;47.984;7.964;2023-03-23T19:36:01;7.00;;;5.43;;
43700;SDS011;58809;47.984;7.964;2023-03-23T19:39:13;10.75;;;6.30;;
43700;SDS011;58809;47.984;7.964;2023-03-23T19:42:14;6.35;;;4.28;;
43700;SDS011;58809;47.984;7.964;2023-03-23T19:45:19;7.28;;;4.28;;
43700;SDS011;58809;47.984;7.964;2023-03-23T19:48:20;6.75;;;4.40;;
43700;SDS011;58809;47.984;7.964;2023-03-23T19:51:22;5.82;;;4.00;;
43700;SDS011;58809;47.984;7.964;2023-03-23T19:54:24;8.88;;;3.78;;
43700;SDS011;58809;47.984;7.964;2023-03-23T19:57:26;5.43;;;4.13;;
43700;SDS011;58809;47.984;7.964;2023-03-23T20:00:28;4.95;;;3.33;;
43700;SDS011;58809;47.984;7.964;2023-03-23T20:03:29;6.88;;;4.90;;
43700;SDS011;58809;47.984;7.964;2023-03-23T20:06:31;5.97;;;4.30;;
43700;SDS011;58809;47.984;7.964;2023-03-23T20:09:34;6.18;;;3.80;;
43700;SDS011;58809;47.984;7.964;2023-03-23T20:12:36;5.50;;;4.25;;
43700;SDS011;58809;47.984;7.964;2023-03-23T20:15:37;6.05;;;4.38;;
43700;SDS011;58809;47.984;7.964;2023-03-23T20:18:39;5.45;;;4.00;;
43700;SDS011;58809;47.984;7.964;2023-03-23T20:21:41;5.18;;;3.80;;
43700;SDS011;58809;47.984;7.964;2023-03-23T20:24:43;5.47;;;4.07;;
43700;SDS011;58809;47.984;7.964;2023-03-23T20:27:47;4.55;;;3.45;;